Terminal Aerodrome Forecast
Issued by NWS

Home | Current Version | Previous Version | Text Only | Print | Product List | Glossary On
Versions: 1 2 3 4 5 6 7 8 9 10 11 12 13
423
FTUS46 KMTR 240521
TAFSJC
TAF
KSJC 240521Z 2406/2506 30008KT P6SM FEW007
     FM240800 VRB04KT P6SM BKN010
     FM241000 15009KT P6SM OVC010
     FM241800 21007KT P6SM FEW012 SCT250
     FM242000 31012KT P6SM FEW015 SCT250
     FM250300 30008KT P6SM FEW012 SCT250=

USA.gov is the U.S. government's official web portal to all federal, state and local government web resources and services.